Time;durP1;ratioP1;P1;durP2;ratioP2;P2;SDS_P1;SDS_P2;PMS_P1;PMS_P2;Temp;Humidity;BMP_temperature;BMP_pressure;BME280_temperature;BME280_humidity;BME280_pressure;Samples;Min_cycle;Max_cycle;Signal;HPM_P1;HPM_P2
2022/03/26 00:00:16;;;;;;;;;54.67;44.00;;;;;28.48;17.52;102214.03;5064571;28;45372;-72
2022/03/26 00:02:42;;;;;;;;;59.75;46.75;;;;;28.47;17.73;102203.16;5056614;28;45385;-73
2022/03/26 00:05:08;;;;;;;;;52.00;41.50;;;;;28.13;17.82;102161.50;5051888;28;45685;-72
2022/03/26 00:07:34;;;;;;;;;53.00;42.00;;;;;28.46;17.74;102209.56;5075063;27;45432;-72
2022/03/26 00:09:59;;;;;;;;;55.25;42.75;;;;;28.40;17.82;102211.53;5066963;27;45594;-72
2022/03/26 00:12:25;;;;;;;;;53.67;43.00;;;;;28.45;17.79;102224.16;5068867;27;46325;-72
2022/03/26 00:14:50;;;;;;;;;52.25;44.00;;;;;28.42;17.74;102211.47;5056839;28;45442;-72
2022/03/26 00:17:16;;;;;;;;;55.25;43.00;;;;;28.39;17.63;102201.56;5056446;28;45506;-72
2022/03/26 00:19:41;;;;;;;;;49.25;42.25;;;;;28.30;17.63;102174.59;5065619;28;45533;-72
2022/03/26 00:22:07;;;;;;;;;47.75;39.00;;;;;28.38;17.82;102191.59;5075260;28;45965;-72
2022/03/26 00:24:32;;;;;;;;;55.25;43.25;;;;;28.47;17.96;102208.63;5076803;27;45645;-72
2022/03/26 00:26:57;;;;;;;;;42.00;36.00;;;;;28.25;17.73;102195.66;5077008;27;47192;-72
2022/03/26 00:29:22;;;;;;;;;54.00;44.50;;;;;28.16;18.00;102172.31;5067865;28;45475;-72
2022/03/26 00:31:48;;;;;;;;;53.75;41.00;;;;;28.41;17.83;102207.88;5056262;28;52633;-72
2022/03/26 00:34:13;;;;;;;;;50.67;42.33;;;;;28.33;17.90;102207.22;5056195;28;45508;-72
2022/03/26 00:36:39;;;;;;;;;53.67;43.33;;;;;28.09;17.57;102169.81;5056619;28;45787;-72
2022/03/26 00:39:05;;;;;;;;;52.25;44.00;;;;;28.21;18.07;102214.00;5063503;28;45555;-72
2022/03/26 00:41:31;;;;;;;;;55.75;45.50;;;;;28.21;18.17;102202.16;5076316;28;46230;-72
2022/03/26 00:43:56;;;;;;;;;51.25;40.75;;;;;28.08;18.30;102214.41;5076255;27;45396;-72
2022/03/26 00:46:22;;;;;;;;;52.75;43.00;;;;;27.94;18.35;102207.50;5076309;27;45458;-72
2022/03/26 00:48:48;;;;;;;;;57.00;45.75;;;;;27.72;18.81;102178.19;5070045;27;45409;-72
2022/03/26 00:51:17;;;;;;;;;50.50;41.25;;;;;27.73;18.32;102177.25;5055882;28;45422;-72
2022/03/26 00:53:43;;;;;;;;;49.50;41.75;;;;;28.00;18.27;102210.09;5055924;28;45384;-72
2022/03/26 00:56:09;;;;;;;;;54.75;43.00;;;;;27.96;18.13;102205.66;5055993;28;45244;-72
2022/03/26 00:58:34;;;;;;;;;55.25;43.75;;;;;28.02;18.38;102197.28;5061754;28;45412;-72
2022/03/26 01:00:59;;;;;;;;;56.00;43.50;;;;;27.84;18.38;102171.44;5064315;28;45847;-72
2022/03/26 01:03:25;;;;;;;;;54.25;42.50;;;;;27.96;18.04;102180.19;5056052;28;45464;-72
2022/03/26 01:05:50;;;;;;;;;56.25;46.00;;;;;27.90;18.08;102171.28;5055956;28;45290;-72
2022/03/26 01:08:15;;;;;;;;;36.67;31.00;;;;;28.01;18.42;102203.69;5055742;28;45437;-72
2022/03/26 01:10:42;;;;;;;;;59.25;44.75;;;;;27.93;18.00;102194.81;5055357;28;45626;-72
2022/03/26 01:13:07;;;;;;;;;52.75;42.75;;;;;27.72;18.35;102167.28;5055329;28;45454;-72
2022/03/26 01:15:33;;;;;;;;;55.25;43.75;;;;;27.92;18.59;102198.50;5056011;28;45415;-72
2022/03/26 01:17:58;;;;;;;;;56.75;45.25;;;;;27.91;18.37;102196.72;5055896;28;45380;-72
2022/03/26 01:20:24;;;;;;;;;50.00;39.00;;;;;27.87;18.53;102197.75;5060591;28;45366;-72
2022/03/26 01:22:49;;;;;;;;;54.50;43.75;;;;;27.73;18.55;102179.97;5075636;28;45407;-72
2022/03/26 01:25:15;;;;;;;;;53.00;43.25;;;;;27.77;18.40;102188.94;5076061;27;45559;-72
2022/03/26 01:27:40;;;;;;;;;56.00;43.33;;;;;27.61;18.37;102179.44;5072337;27;45915;-72
2022/03/26 01:30:06;;;;;;;;;49.33;40.33;;;;;27.63;18.19;102178.44;5059188;28;46161;-72
2022/03/26 01:32:32;;;;;;;;;54.33;42.67;;;;;27.69;18.56;102191.91;5075570;27;45422;-72
2022/03/26 01:34:58;;;;;;;;;56.25;43.00;;;;;27.68;18.31;102176.50;5076047;27;45376;-72
2022/03/26 01:37:24;;;;;;;;;51.25;39.00;;;;;27.66;18.35;102189.25;5075376;27;45367;-72
2022/03/26 01:39:50;;;;;;;;;51.50;40.75;;;;;27.35;18.54;102141.09;5072550;27;46227;-72
2022/03/26 01:42:16;;;;;;;;;49.33;40.67;;;;;27.21;18.56;102135.16;5055277;28;45382;-72
2022/03/26 01:44:42;;;;;;;;;57.00;44.75;;;;;27.41;18.71;102174.59;5055535;28;45495;-72
2022/03/26 01:47:07;;;;;;;;;54.25;43.75;;;;;27.35;18.59;102187.44;5055414;28;45437;-72
2022/03/26 01:49:33;;;;;;;;;49.00;41.67;;;;;27.27;18.84;102178.59;5056289;28;46161;-72
2022/03/26 01:52:00;;;;;;;;;51.33;41.67;;;;;27.26;18.65;102184.97;5075467;27;45582;-72
2022/03/26 01:54:27;;;;;;;;;55.00;42.67;;;;;27.07;19.03;102157.31;5075717;27;45507;-72
2022/03/26 01:56:53;;;;;;;;;54.75;44.25;;;;;27.01;18.96;102165.69;5075638;27;45434;-72
2022/03/26 01:59:19;;;;;;;;;51.75;41.25;;;;;27.09;18.64;102173.63;5075263;27;45490;-73
2022/03/26 02:01:45;;;;;;;;;57.00;44.50;;;;;27.09;19.01;102176.34;5059106;27;45341;-72
2022/03/26 02:04:12;;;;;;;;;58.00;44.25;;;;;26.75;19.23;102123.72;5053956;28;45415;-72
2022/03/26 02:06:39;;;;;;;;;50.67;40.00;;;;;26.90;19.14;102144.19;5054808;28;45478;-72
2022/03/26 02:09:10;;;;;;;;;53.33;43.00;;;;;26.86;18.95;102173.34;5055000;28;45386;-72
2022/03/26 02:11:41;;;;;;;;;54.50;43.25;;;;;26.75;19.29;102170.00;5054689;28;45506;-72
2022/03/26 02:14:08;;;;;;;;;51.25;42.50;;;;;26.76;19.10;102168.19;5034984;28;45377;-72
2022/03/26 02:16:36;;;;;;;;;53.50;41.50;;;;;26.75;19.22;102167.28;5034758;28;45242;-72
2022/03/26 02:19:02;;;;;;;;;52.50;43.00;;;;;26.89;19.19;102166.88;5034465;28;46204;-72
2022/03/26 02:21:28;;;;;;;;;50.33;40.00;;;;;26.90;19.29;102165.97;5056998;28;45436;-72
2022/03/26 02:23:53;;;;;;;;;52.33;41.67;;;;;26.86;19.38;102169.72;5075287;27;45978;-72
2022/03/26 02:26:22;;;;;;;;;54.33;43.00;;;;;26.86;19.32;102165.19;5074997;28;45313;-72
2022/03/26 02:28:49;;;;;;;;;61.00;46.50;;;;;26.62;19.07;102128.53;5075190;27;46067;-72
2022/03/26 02:31:15;;;;;;;;;53.33;43.00;;;;;26.91;19.21;102162.31;5072115;27;45383;-73
2022/03/26 02:33:41;;;;;;;;;52.33;41.00;;;;;26.93;19.20;102157.69;5054425;28;45429;-72
2022/03/26 02:36:06;;;;;;;;;57.25;44.75;;;;;26.95;18.80;102164.03;5054951;28;45416;-72
2022/03/26 02:38:32;;;;;;;;;54.50;43.75;;;;;26.95;19.19;102153.13;5054314;28;45561;-72
2022/03/26 02:40:57;;;;;;;;;51.25;39.75;;;;;26.59;19.30;102115.03;5054996;28;45518;-71
2022/03/26 02:43:23;;;;;;;;;55.50;43.00;;;;;26.82;19.19;102158.03;5069150;28;45387;-72
2022/03/26 02:45:48;;;;;;;;;52.75;42.00;;;;;26.80;19.33;102148.97;5078599;27;45532;-72
2022/03/26 02:48:14;;;;;;;;;53.33;42.00;;;;;26.82;19.00;102148.94;5078175;28;45618;-72
2022/03/26 02:50:43;;;;;;;;;48.00;38.75;;;;;26.87;19.39;102158.78;5078451;28;45417;-72
2022/03/26 02:53:09;;;;;;;;;55.00;44.75;;;;;26.84;19.40;102149.81;5077978;27;45280;-72
2022/03/26 02:55:35;;;;;;;;;46.67;37.33;;;;;26.74;19.39;102151.00;5058037;28;45278;-72
2022/03/26 02:58:02;;;;;;;;;54.00;40.00;;;;;26.72;19.46;102155.56;5060786;28;46110;-73
2022/03/26 03:00:27;;;;;;;;;48.33;39.00;;;;;26.52;19.25;102127.91;5077012;28;45585;-73
2022/03/26 03:02:52;;;;;;;;;46.67;37.67;;;;;26.48;19.33;102136.19;5059461;27;45519;-72
2022/03/26 03:05:18;;;;;;;;;52.00;41.00;;;;;26.58;19.61;102164.97;5057716;28;45582;-72
2022/03/26 03:07:44;;;;;;;;;49.50;40.00;;;;;26.54;19.55;102166.88;5057701;28;45399;-74
2022/03/26 03:10:10;;;;;;;;;51.33;40.00;;;;;26.60;19.01;102151.31;5073343;28;46460;-72
2022/03/26 03:12:35;;;;;;;;;51.33;39.67;;;;;26.56;19.37;102153.22;5046581;28;45702;-71
2022/03/26 03:15:00;;;;;;;;;54.50;41.75;;;;;26.50;19.63;102142.50;5035847;28;45602;-72
2022/03/26 03:17:26;;;;;;;;;50.00;42.25;;;;;26.57;19.13;102148.66;5035811;28;45469;-72
2022/03/26 03:19:51;;;;;;;;;55.75;43.00;;;;;26.63;19.49;102152.13;5036807;28;45602;-72
2022/03/26 03:22:16;;;;;;;;;47.33;38.00;;;;;26.57;19.22;102152.28;5076106;28;45456;-71
2022/03/26 03:24:42;;;;;;;;;56.00;43.00;;;;;26.52;19.55;102160.56;5077864;27;45367;-71
2022/03/26 03:27:07;;;;;;;;;52.33;42.67;;;;;26.52;19.11;102159.66;5077696;28;45534;-72
2022/03/26 03:29:33;;;;;;;;;54.50;41.50;;;;;26.42;19.17;102129.06;5077278;27;45358;-71
2022/03/26 03:31:58;;;;;;;;;51.00;39.67;;;;;26.55;19.61;102154.16;5073930;28;46300;-72
2022/03/26 03:34:24;;;;;;;;;55.67;43.00;;;;;26.64;19.38;102151.19;5056248;28;45659;-71
2022/03/26 03:36:49;;;;;;;;;54.67;40.33;;;;;26.56;19.40;102155.94;5056129;28;46348;-72
2022/03/26 03:39:14;;;;;;;;;52.00;42.00;;;;;26.51;19.17;102145.19;5056312;28;45524;-71
2022/03/26 03:41:40;;;;;;;;;51.67;41.00;;;;;26.52;19.15;102162.41;5056813;28;45479;-72
2022/03/26 03:44:06;;;;;;;;;52.00;41.00;;;;;26.56;19.08;102158.66;5064099;28;45491;-71
2022/03/26 03:46:33;;;;;;;;;55.33;43.33;;;;;26.53;19.60;102161.47;5076991;28;45962;-72
2022/03/26 03:48:58;;;;;;;;;39.67;36.33;;;;;26.49;19.05;102163.34;5077589;27;45418;-71
2022/03/26 03:51:24;;;;;;;;;54.00;42.00;;;;;26.45;19.33;102155.31;5077347;28;45420;-72
2022/03/26 03:53:49;;;;;;;;;52.00;42.00;;;;;26.57;19.31;102162.28;5077263;28;45478;-71
2022/03/26 03:56:15;;;;;;;;;50.33;41.33;;;;;26.62;19.17;102152.16;5077069;27;46326;-71
2022/03/26 03:58:40;;;;;;;;;52.75;41.00;;;;;26.59;19.14;102160.41;5057353;28;45416;-71
2022/03/26 04:01:05;;;;;;;;;54.50;42.25;;;;;26.62;19.13;102163.94;5056919;28;45405;-71
2022/03/26 04:03:31;;;;;;;;;53.00;39.67;;;;;26.55;19.11;102165.03;5057016;28;45290;-71
2022/03/26 04:05:58;;;;;;;;;54.00;42.00;;;;;26.60;19.36;102167.66;5056723;28;46320;-71
2022/03/26 04:08:24;;;;;;;;;45.33;37.33;;;;;26.54;19.22;102141.50;5057015;28;45322;-71
2022/03/26 04:10:49;;;;;;;;;47.67;40.67;;;;;26.67;19.09;102169.28;5056985;28;45468;-71
2022/03/26 04:13:15;;;;;;;;;48.67;40.00;;;;;26.57;19.13;102168.63;5042944;28;45229;-72
2022/03/26 04:15:40;;;;;;;;;51.67;40.33;;;;;26.43;19.53;102143.59;5035901;28;55344;-73
2022/03/26 04:18:06;;;;;;;;;53.67;41.00;;;;;26.57;19.59;102165.91;5036651;28;45350;-72
2022/03/26 04:20:35;;;;;;;;;46.00;33.67;;;;;26.61;19.26;102169.41;5036612;28;45310;-72
2022/03/26 04:23:01;;;;;;;;;47.00;38.00;;;;;26.47;19.33;102151.63;5071062;28;45532;-72
2022/03/26 04:25:26;;;;;;;;;45.67;38.33;;;;;26.45;19.38;102145.31;5076927;28;45481;-72
2022/03/26 04:27:51;;;;;;;;;38.67;34.33;;;;;26.54;19.57;102172.31;5076849;27;45446;-72
2022/03/26 04:30:17;;;;;;;;;43.00;35.67;;;;;26.60;19.26;102178.53;5076785;27;45695;-72
2022/03/26 04:32:43;;;;;;;;;45.00;38.33;;;;;26.71;19.21;102165.59;5075433;28;45573;-72
2022/03/26 04:35:09;;;;;;;;;52.33;40.00;;;;;26.68;19.36;102171.97;5063921;28;47376;-72
2022/03/26 04:37:35;;;;;;;;;40.00;36.33;;;;;26.68;19.14;102171.97;5056606;28;45495;-72
2022/03/26 04:40:03;;;;;;;;;50.00;40.00;;;;;26.74;18.99;102168.22;5056454;28;45341;-72
2022/03/26 04:42:28;;;;;;;;;47.67;39.00;;;;;26.84;18.99;102167.03;5055028;28;46266;-72
2022/03/26 04:44:54;;;;;;;;;43.67;37.67;;;;;26.66;19.21;102162.91;5055772;28;51101;-72
2022/03/26 04:47:19;;;;;;;;;35.00;32.67;;;;;26.50;19.84;102169.72;5057144;28;45483;-73
2022/03/26 04:49:44;;;;;;;;;35.67;27.67;;;;;26.59;19.39;102172.19;5076710;27;45484;-72
2022/03/26 04:52:10;;;;;;;;;47.00;37.67;;;;;26.38;19.90;102142.81;5076924;28;45445;-72
2022/03/26 04:54:35;;;;;;;;;43.00;37.00;;;;;26.43;19.60;102146.31;5076344;28;46155;-72
2022/03/26 04:57:00;;;;;;;;;48.00;37.50;;;;;26.60;19.25;102168.53;5076550;28;45327;-72
2022/03/26 04:59:26;;;;;;;;;44.00;37.33;;;;;26.71;19.21;102165.59;5076411;28;45451;-72
2022/03/26 05:01:51;;;;;;;;;50.67;40.33;;;;;26.56;19.37;102158.66;5057035;27;45580;-72
2022/03/26 05:04:16;;;;;;;;;48.00;37.67;;;;;26.63;19.58;102157.56;5054635;28;45504;-72
2022/03/26 05:06:42;;;;;;;;;42.67;37.00;;;;;26.53;19.42;102166.91;5055057;28;45324;-73
2022/03/26 05:09:07;;;;;;;;;54.67;43.00;;;;;26.50;19.67;102177.88;5056147;28;45463;-72
2022/03/26 05:11:32;;;;;;;;;52.33;40.00;;;;;26.23;19.70;102130.47;5055797;28;45594;-72
2022/03/26 05:13:58;;;;;;;;;51.00;39.67;;;;;26.32;19.78;102152.03;5055163;28;45336;-72
2022/03/26 05:16:23;;;;;;;;;43.33;36.33;;;;;26.23;19.41;102131.38;5055939;28;45448;-72
2022/03/26 05:18:49;;;;;;;;;50.00;40.00;;;;;26.23;19.03;102128.66;5055870;28;45241;-72
2022/03/26 05:21:14;;;;;;;;;44.33;36.00;;;;;26.36;19.20;102157.34;5055944;28;45495;-72
2022/03/26 05:23:39;;;;;;;;;46.67;37.33;;;;;26.53;19.22;102177.81;5055475;28;46863;-73
2022/03/26 05:26:05;;;;;;;;;49.00;39.67;;;;;26.62;19.68;102176.66;5055645;28;45305;-72
2022/03/26 05:28:31;;;;;;;;;48.33;40.33;;;;;26.49;19.57;102171.53;5065645;28;45705;-73
2022/03/26 05:30:56;;;;;;;;;48.67;39.00;;;;;26.58;19.84;102185.84;5075743;28;45328;-73
2022/03/26 05:33:22;;;;;;;;;43.67;39.00;;;;;26.59;19.92;102187.63;5075664;27;45494;-73
2022/03/26 05:35:51;;;;;;;;;50.33;39.00;;;;;26.50;19.61;102191.50;5075817;27;45380;-73
2022/03/26 05:38:16;;;;;;;;;56.33;42.33;;;;;26.27;19.90;102171.19;5076171;27;45425;-73
2022/03/26 05:40:42;;;;;;;;;46.67;36.00;;;;;26.25;19.31;102178.47;5074164;28;45496;-73
2022/03/26 05:43:08;;;;;;;;;53.33;42.00;;;;;26.42;19.24;102197.09;5045090;28;45861;-73
2022/03/26 05:45:33;;;;;;;;;49.00;40.00;;;;;26.30;19.22;102191.97;5035584;28;45799;-72
2022/03/26 05:48:02;;;;;;;;;52.33;42.00;;;;;26.26;19.44;102191.16;5035112;28;45320;-73
2022/03/26 05:50:28;;;;;;;;;48.33;39.00;;;;;26.35;19.72;102201.78;5035327;28;45379;-72
2022/03/26 05:52:53;;;;;;;;;48.33;38.33;;;;;26.32;19.71;102206.44;5034847;28;45389;-73
2022/03/26 05:55:19;;;;;;;;;49.33;39.00;;;;;26.26;19.89;102203.84;5035053;28;45419;-72
2022/03/26 05:57:45;;;;;;;;;49.67;38.00;;;;;26.35;19.56;102207.25;5060948;28;45384;-73
2022/03/26 06:00:11;;;;;;;;;46.00;39.33;;;;;26.38;19.64;102195.38;5041702;28;46491;-73
2022/03/26 06:02:37;;;;;;;;;48.33;40.00;;;;;26.35;19.50;102206.34;5053841;28;46312;-73
2022/03/26 06:05:04;;;;;;;;;51.00;41.00;;;;;26.43;19.89;102203.47;5055084;28;45519;-73
2022/03/26 06:07:29;;;;;;;;;53.33;40.00;;;;;26.12;19.49;102130.75;5055137;28;45284;-79
2022/03/26 06:09:55;;;;;;;;;46.00;38.67;;;;;25.78;19.87;102077.13;5071844;28;45393;-76
2022/03/26 06:12:21;;;;;;;;;46.67;37.33;;;;;26.24;20.21;102170.34;5067757;27;45493;-77
2022/03/26 06:14:46;;;;;;;;;48.25;42.25;;;;;26.21;20.02;102170.44;5055255;28;45250;-79
2022/03/26 06:17:12;;;;;;;;;50.00;39.75;;;;;26.19;20.27;102198.56;5055108;28;45730;-81
2022/03/26 06:19:38;;;;;;;;;52.00;43.00;;;;;26.20;20.22;102210.31;5058297;28;45438;-79
2022/03/26 06:22:04;;;;;;;;;54.50;42.25;;;;;26.15;20.23;102175.09;5067034;28;45437;-83
2022/03/26 06:24:30;;;;;;;;;43.33;38.00;;;;;26.44;19.83;102227.00;5057101;27;45482;-81
2022/03/26 06:26:55;;;;;;;;;49.33;40.00;;;;;26.40;19.95;102233.44;5057876;28;45308;-84
2022/03/26 06:29:20;;;;;;;;;47.33;38.67;;;;;26.29;20.39;102210.13;5042434;28;45631;-85
2022/03/26 06:31:46;;;;;;;;;49.33;40.00;;;;;26.41;19.69;102229.81;5038743;28;45306;-80
2022/03/26 06:34:12;;;;;;;;;49.00;38.33;;;;;26.52;19.93;102225.00;5038496;28;45432;-78
2022/03/26 06:36:39;;;;;;;;;41.00;37.00;;;;;26.35;19.89;102203.63;5038637;28;45258;-76
2022/03/26 06:39:09;;;;;;;;;45.67;37.67;;;;;26.67;19.67;102235.50;5038564;28;45492;-78
2022/03/26 06:41:38;;;;;;;;;47.67;40.00;;;;;26.82;19.60;102233.34;5039002;28;45349;-76
2022/03/26 06:44:08;;;;;;;;;47.33;38.00;;;;;26.73;19.41;102209.09;5058245;28;46180;-77
2022/03/26 06:46:37;;;;;;;;;49.33;39.33;;;;;26.72;19.35;102215.47;5058303;28;45332;-78
2022/03/26 06:49:04;;;;;;;;;53.33;40.67;;;;;26.84;19.36;102246.00;5058009;28;45493;-76
2022/03/26 06:51:29;;;;;;;;;42.00;36.00;;;;;26.80;19.33;102246.13;5056789;28;46499;-77
2022/03/26 06:53:54;;;;;;;;;52.33;43.00;;;;;26.55;19.52;102227.63;5056866;28;45375;-77
2022/03/26 06:56:20;;;;;;;;;46.00;39.00;;;;;26.64;19.07;102254.63;5051900;28;45389;-75
2022/03/26 06:58:45;;;;;;;;;43.00;36.67;;;;;26.50;19.51;102222.31;5066339;28;45498;-75
2022/03/26 07:01:11;;;;;;;;;46.33;39.67;;;;;26.62;19.46;102253.75;5060192;28;46350;-75
2022/03/26 07:03:36;;;;;;;;;51.00;40.67;;;;;26.45;19.70;102250.56;5047519;28;45510;-75
2022/03/26 07:06:03;;;;;;;;;49.00;39.00;;;;;26.43;19.23;102247.00;5047624;28;45396;-75
2022/03/26 07:08:28;;;;;;;;;54.33;44.33;;;;;26.39;19.37;102258.91;5059395;28;45424;-75
2022/03/26 07:10:54;;;;;;;;;37.67;32.00;;;;;26.36;19.41;102268.03;5064205;28;45822;-75
2022/03/26 07:13:21;;;;;;;;;45.33;39.00;;;;;26.32;19.22;102264.47;5067563;27;45451;-74
2022/03/26 07:15:48;;;;;;;;;48.67;36.00;;;;;26.09;19.14;102226.91;5068278;27;45568;-76
2022/03/26 07:18:13;;;;;;;;;45.67;38.33;;;;;25.78;19.50;102192.22;5074272;27;45439;-78
2022/03/26 07:20:39;;;;;;;;;44.33;36.00;;;;;26.01;19.49;102218.91;5038313;28;45471;-75
2022/03/26 07:23:04;;;;;;;;;46.33;37.67;;;;;26.27;19.16;102246.44;5066050;28;45571;-76
2022/03/26 07:25:30;;;;;;;;;42.67;36.00;;;;;26.45;19.51;102280.50;5056368;28;45310;-75
2022/03/26 07:27:56;;;;;;;;;43.33;36.33;;;;;26.38;19.19;102303.34;5064115;28;45546;-75
2022/03/26 07:30:22;;;;;;;;;45.00;35.00;;;;;26.04;19.14;102223.41;5075883;27;46000;-75
2022/03/26 07:32:50;;;;;;;;;46.00;37.33;;;;;26.21;19.09;102252.03;5064899;28;45412;-75
2022/03/26 07:35:16;;;;;;;;;44.67;38.00;;;;;26.32;19.20;102286.22;5056416;28;45430;-75
2022/03/26 07:37:43;;;;;;;;;42.33;36.00;;;;;26.07;19.44;102255.06;5053877;28;45357;-75
2022/03/26 07:40:10;;;;;;;;;40.33;34.67;;;;;25.96;19.45;102225.34;5051605;28;45455;-75
2022/03/26 07:42:35;;;;;;;;;43.33;36.67;;;;;26.21;19.26;102239.31;5054590;28;45534;-75
2022/03/26 07:45:01;;;;;;;;;52.00;38.00;;;;;26.58;19.12;102292.91;5035864;28;45404;-75
2022/03/26 07:47:26;;;;;;;;;37.67;33.00;;;;;26.55;18.80;102271.19;5035941;28;45350;-77
2022/03/26 07:49:52;;;;;;;;;45.00;37.33;;;;;26.79;18.80;102277.00;5039297;28;45432;-75
2022/03/26 07:52:20;;;;;;;;;49.67;37.67;;;;;26.73;18.63;102275.31;5075867;27;45534;-77
2022/03/26 07:54:45;;;;;;;;;39.00;34.67;;;;;26.80;18.46;102287.84;5060229;27;45366;-77
2022/03/26 07:57:10;;;;;;;;;44.00;38.00;;;;;26.95;18.97;102293.88;5055600;28;45423;-77
2022/03/26 07:59:36;;;;;;;;;46.00;35.33;;;;;27.01;18.75;102294.59;5039249;28;46045;-77
2022/03/26 08:02:01;;;;;;;;;48.33;38.33;;;;;26.69;18.78;102243.66;5069983;28;45395;-79
2022/03/26 08:04:27;;;;;;;;;43.67;37.00;;;;;26.65;18.75;102237.38;5076255;27;45353;-81
2022/03/26 08:06:53;;;;;;;;;49.00;38.33;;;;;27.02;18.59;102300.94;5064710;27;45300;-77
2022/03/26 08:09:18;;;;;;;;;38.33;33.00;;;;;26.88;18.29;102241.38;5058392;28;46421;-79
2022/03/26 08:11:45;;;;;;;;;40.33;33.33;;;;;27.22;18.48;102293.13;5070309;27;45350;-78
2022/03/26 08:14:11;;;;;;;;;19.33;13.67;;;;;27.17;18.26;102283.28;5046512;28;45478;-78
2022/03/26 08:16:37;;;;;;;;;48.33;36.67;;;;;27.12;18.27;102294.31;5035647;28;45418;-82
2022/03/26 08:19:02;;;;;;;;;43.67;36.00;;;;;27.02;18.58;102252.81;5067722;28;53121;-84
2022/03/26 08:21:29;;;;;;;;;40.00;35.00;;;;;27.41;18.14;102292.66;5007422;27;1328376;-76
2022/03/26 08:23:54;;;;;;;;;46.67;36.00;;;;;27.43;18.44;102293.53;5045153;27;45505;-76
2022/03/26 08:26:22;;;;;;;;;43.67;35.00;;;;;27.51;18.22;102280.59;5063372;27;45391;-76
2022/03/26 08:28:51;;;;;;;;;41.33;35.67;;;;;27.62;18.14;102298.47;5044875;28;45494;-76
2022/03/26 08:31:18;;;;;;;;;46.00;36.67;;;;;27.39;18.11;102235.47;5050149;28;45536;-76
2022/03/26 08:33:45;;;;;;;;;46.33;40.00;;;;;27.64;18.09;102252.97;5056661;28;45497;-74
2022/03/26 08:36:11;;;;;;;;;53.00;42.00;;;;;27.84;17.92;102305.09;5056230;28;45525;-75
2022/03/26 08:38:37;;;;;;;;;43.67;35.33;;;;;27.88;17.76;102308.63;5048290;28;45583;-74
2022/03/26 08:41:03;;;;;;;;;49.67;37.00;;;;;28.10;17.47;102308.94;5042072;28;45490;-75
2022/03/26 08:43:29;;;;;;;;;46.33;35.00;;;;;28.18;17.58;102305.97;5037657;28;45600;-80
2022/03/26 08:45:55;;;;;;;;;52.00;39.33;;;;;28.01;18.08;102315.53;5040812;28;45506;-72
2022/03/26 08:48:20;;;;;;;;;44.33;36.00;;;;;27.89;17.82;102304.97;5059077;27;48155;-72
2022/03/26 08:50:46;;;;;;;;;42.67;34.67;;;;;27.89;18.13;102304.97;5043636;28;45455;-73
2022/03/26 08:53:13;;;;;;;;;45.00;36.33;;;;;27.76;18.09;102278.97;5040958;28;45446;-74
2022/03/26 08:55:38;;;;;;;;;48.67;35.00;;;;;27.85;17.91;102306.88;5053037;28;45647;-70
2022/03/26 08:58:04;;;;;;;;;40.00;36.00;;;;;28.15;17.75;102301.47;5042565;27;45626;-76
2022/03/26 09:00:29;;;;;;;;;38.00;35.00;;;;;28.37;17.63;102298.09;5051220;28;45609;-75
2022/03/26 09:02:55;;;;;;;;;39.00;34.00;;;;;28.51;17.39;102300.38;5056307;27;45512;-77
2022/03/26 09:05:22;;;;;;;;;42.67;34.67;;;;;28.54;17.59;102308.50;5048162;28;45494;-74
2022/03/26 09:07:50;;;;;;;;;43.67;37.33;;;;;28.31;17.00;102255.53;5042058;28;46655;-76
2022/03/26 09:10:15;;;;;;;;;44.67;36.00;;;;;28.86;17.28;102315.66;5071328;27;45446;-76
2022/03/26 09:12:41;;;;;;;;;44.00;37.67;;;;;28.69;17.42;102263.41;5075353;27;45761;-76
2022/03/26 09:15:07;;;;;;;;;48.67;36.00;;;;;28.89;17.17;102274.56;5068537;27;45329;-77
2022/03/26 09:17:33;;;;;;;;;43.33;35.00;;;;;29.13;17.29;102293.81;5054450;28;47241;-76
2022/03/26 09:19:59;;;;;;;;;40.00;36.00;;;;;29.30;17.10;102304.19;5053629;28;45779;-76
2022/03/26 09:22:24;;;;;;;;;38.67;34.67;;;;;29.15;17.12;102275.50;5054351;28;45923;-76
2022/03/26 09:24:50;;;;;;;;;48.33;35.67;;;;;29.02;17.37;102271.44;5053573;28;45742;-76
2022/03/26 09:27:15;;;;;;;;;45.33;35.00;;;;;29.13;17.31;102285.63;5051936;28;47234;-76
2022/03/26 09:29:41;;;;;;;;;51.00;39.00;;;;;29.17;17.23;102280.91;5053065;28;45430;-77
2022/03/26 09:32:07;;;;;;;;;47.33;37.33;;;;;29.13;16.84;102262.84;5053714;28;45395;-76
2022/03/26 09:34:32;;;;;;;;;48.33;39.00;;;;;29.37;17.09;102299.41;5053713;28;45650;-76
2022/03/26 09:36:57;;;;;;;;;39.67;34.00;;;;;29.19;16.59;102296.31;5053774;28;45680;-76
2022/03/26 09:39:23;;;;;;;;;47.33;37.67;;;;;29.41;17.01;102301.97;5054469;28;45396;-76
2022/03/26 09:41:50;;;;;;;;;43.67;35.00;;;;;28.96;16.72;102222.44;5055204;28;45593;-76
2022/03/26 09:44:16;;;;;;;;;44.67;37.33;;;;;29.33;16.99;102290.41;5055476;28;45509;-76
2022/03/26 09:46:41;;;;;;;;;42.00;36.33;;;;;29.11;16.36;102248.34;5054802;28;45450;-76
2022/03/26 09:49:09;;;;;;;;;46.67;38.67;;;;;29.72;16.45;102298.09;5054523;28;45537;-76
2022/03/26 09:51:35;;;;;;;;;45.33;34.33;;;;;29.43;16.92;102239.00;5053920;28;45412;-76
2022/03/26 09:54:00;;;;;;;;;48.33;38.67;;;;;29.73;16.59;102288.03;5054994;28;45427;-76
2022/03/26 09:56:28;;;;;;;;;45.33;37.33;;;;;29.86;16.64;102297.63;5054956;28;46190;-77
2022/03/26 09:58:54;;;;;;;;;49.67;36.33;;;;;29.58;16.64;102243.03;5055061;28;45463;-77
2022/03/26 10:01:21;;;;;;;;;47.33;37.00;;;;;29.88;16.53;102294.81;5055430;28;45486;-76
2022/03/26 10:04:13;;;;;;;;;41.33;35.33;;;;;29.90;16.70;102299.28;5054509;28;45337;-77
2022/03/26 10:06:48;;;;;;;;;44.67;36.67;;;;;29.74;16.52;102279.78;5051985;28;45427;-77
2022/03/26 10:09:24;;;;;;;;;52.33;38.00;;;;;29.69;16.63;102235.31;5053689;28;45432;-77
2022/03/26 10:11:58;;;;;;;;;40.67;35.00;;;;;29.74;16.24;102296.19;5054557;28;45371;-76
2022/03/26 10:14:23;;;;;;;;;44.67;34.67;;;;;29.75;16.52;102256.94;5054998;28;45447;-76
2022/03/26 10:16:53;;;;;;;;;47.67;36.33;;;;;29.66;16.10;102216.28;5053059;28;47195;-76
2022/03/26 10:19:22;;;;;;;;;45.33;36.67;;;;;30.17;16.61;102285.50;5054096;28;45487;-77
2022/03/26 10:21:49;;;;;;;;;46.00;36.67;;;;;30.43;16.16;102298.16;5054281;28;45542;-75
2022/03/26 10:24:14;;;;;;;;;52.67;40.67;;;;;30.26;16.09;102251.38;5054851;28;45589;-76
2022/03/26 10:26:41;;;;;;;;;49.33;40.33;;;;;30.52;16.21;102279.56;5054680;28;46722;-76
2022/03/26 10:29:06;;;;;;;;;48.67;37.00;;;;;30.36;16.20;102269.19;5053534;28;45453;-76
2022/03/26 10:34:20;;;;;;;;;47.67;37.00;;;;;30.71;16.12;102287.91;5053050;28;45456;-76
2022/03/26 10:36:57;;;;;;;;;48.00;40.00;;;;;30.69;15.73;102288.00;5054445;28;45423;-78
2022/03/26 10:39:26;;;;;;;;;47.67;37.00;;;;;30.79;15.71;102281.16;5050320;28;45498;-77
2022/03/26 10:41:55;;;;;;;;;48.67;38.33;;;;;30.81;15.83;102281.09;5047024;28;45454;-74
2022/03/26 10:44:30;;;;;;;;;51.33;41.00;;;;;30.73;15.91;102248.56;5047907;28;45929;-75
2022/03/26 10:47:01;;;;;;;;;50.33;37.67;;;;;31.02;15.91;102282.06;5041251;28;45817;-75
2022/03/26 10:49:33;;;;;;;;;49.67;37.00;;;;;31.05;15.79;102284.66;5044937;28;45781;-75
2022/03/26 10:52:13;;;;;;;;;45.00;36.33;;;;;30.90;15.67;102252.38;5037764;28;46357;-75
2022/03/26 10:54:38;;;;;;;;;49.33;37.00;;;;;30.78;15.78;102216.34;5042121;28;45979;-75
2022/03/26 10:57:05;;;;;;;;;49.33;37.00;;;;;30.92;15.50;102239.53;5039956;28;45497;-75
2022/03/26 10:59:31;;;;;;;;;38.33;32.33;;;;;31.23;15.12;102276.59;5040874;28;45632;-75
2022/03/26 11:02:00;;;;;;;;;48.33;39.33;;;;;31.25;15.43;102271.94;5040964;28;45447;-75
2022/03/26 11:04:27;;;;;;;;;48.33;37.33;;;;;31.28;15.39;102271.78;5037661;28;45828;-75
2022/03/26 11:06:53;;;;;;;;;43.33;34.67;;;;;31.35;15.39;102267.84;5042575;28;45612;-75